sensor_id;sensor_type;location;lat;lon;timestamp;temperature;humidity
13211;DHT22;6670;51.53087800;7.23266500;2023-02-10T00:01:42;5.00;99.90
13211;DHT22;6670;51.53087800;7.23266500;2023-02-10T00:04:11;5.00;99.90
13211;DHT22;6670;51.53087800;7.23266500;2023-02-10T00:06:38;5.00;99.90
13211;DHT22;6670;51.53087800;7.23266500;2023-02-10T00:09:07;5.00;99.90
13211;DHT22;6670;51.53087800;7.23266500;2023-02-10T00:11:36;4.90;99.90
13211;DHT22;6670;51.53087800;7.23266500;2023-02-10T00:14:22;5.00;99.90
13211;DHT22;6670;51.53087800;7.23266500;2023-02-10T00:16:54;5.00;99.90
13211;DHT22;6670;51.53087800;7.23266500;2023-02-10T00:19:23;5.00;99.90
13211;DHT22;6670;51.53087800;7.23266500;2023-02-10T00:21:51;5.00;99.90
13211;DHT22;6670;51.53087800;7.23266500;2023-02-10T00:24:19;5.00;99.90
13211;DHT22;6670;51.53087800;7.23266500;2023-02-10T00:26:47;5.00;99.90
13211;DHT22;6670;51.53087800;7.23266500;2023-02-10T00:29:15;5.00;99.90
13211;DHT22;6670;51.53087800;7.23266500;2023-02-10T00:31:44;5.00;99.90
13211;DHT22;6670;51.53087800;7.23266500;2023-02-10T00:34:14;5.00;99.90
13211;DHT22;6670;51.53087800;7.23266500;2023-02-10T00:36:41;5.00;99.90
13211;DHT22;6670;51.53087800;7.23266500;2023-02-10T00:39:17;5.00;99.90
13211;DHT22;6670;51.53087800;7.23266500;2023-02-10T00:41:44;5.00;99.90
13211;DHT22;6670;51.53087800;7.23266500;2023-02-10T00:44:12;4.90;99.90
13211;DHT22;6670;51.53087800;7.23266500;2023-02-10T00:46:39;4.90;99.90
13211;DHT22;6670;51.53087800;7.23266500;2023-02-10T00:49:09;4.90;99.90
13211;DHT22;6670;51.53087800;7.23266500;2023-02-10T00:51:37;4.80;99.90
13211;DHT22;6670;51.53087800;7.23266500;2023-02-10T00:54:04;4.80;99.90
13211;DHT22;6670;51.53087800;7.23266500;2023-02-10T00:56:31;4.90;99.90
13211;DHT22;6670;51.53087800;7.23266500;2023-02-10T00:58:59;4.90;99.90
13211;DHT22;6670;51.53087800;7.23266500;2023-02-10T01:01:27;4.90;99.90
13211;DHT22;6670;51.53087800;7.23266500;2023-02-10T01:04:00;4.80;99.90
13211;DHT22;6670;51.53087800;7.23266500;2023-02-10T01:06:29;4.80;99.90
13211;DHT22;6670;51.53087800;7.23266500;2023-02-10T01:08:57;4.80;99.90
13211;DHT22;6670;51.53087800;7.23266500;2023-02-10T01:11:25;4.90;99.90
13211;DHT22;6670;51.53087800;7.23266500;2023-02-10T01:13:52;4.90;99.90
13211;DHT22;6670;51.53087800;7.23266500;2023-02-10T01:16:21;4.90;99.90
13211;DHT22;6670;51.53087800;7.23266500;2023-02-10T01:18:48;4.80;99.90
13211;DHT22;6670;51.53087800;7.23266500;2023-02-10T01:21:17;4.80;99.90
13211;DHT22;6670;51.53087800;7.23266500;2023-02-10T01:23:47;4.70;99.90
13211;DHT22;6670;51.53087800;7.23266500;2023-02-10T01:26:15;4.70;99.90
13211;DHT22;6670;51.53087800;7.23266500;2023-02-10T01:28:43;4.70;99.90
13211;DHT22;6670;51.53087800;7.23266500;2023-02-10T01:31:12;4.70;99.90
13211;DHT22;6670;51.53087800;7.23266500;2023-02-10T01:33:40;4.70;99.90
13211;DHT22;6670;51.53087800;7.23266500;2023-02-10T01:36:10;4.70;99.90
13211;DHT22;6670;51.53087800;7.23266500;2023-02-10T01:38:37;4.80;99.90
13211;DHT22;6670;51.53087800;7.23266500;2023-02-10T01:41:06;4.80;99.90
13211;DHT22;6670;51.53087800;7.23266500;2023-02-10T01:43:53;4.90;99.90
13211;DHT22;6670;51.53087800;7.23266500;2023-02-10T01:46:20;4.90;99.90
13211;DHT22;6670;51.53087800;7.23266500;2023-02-10T01:51:59;4.80;99.90
13211;DHT22;6670;51.53087800;7.23266500;2023-02-10T01:54:32;4.80;99.90
13211;DHT22;6670;51.53087800;7.23266500;2023-02-10T01:57:02;4.90;99.90
13211;DHT22;6670;51.53087800;7.23266500;2023-02-10T01:59:33;4.90;99.90
13211;DHT22;6670;51.53087800;7.23266500;2023-02-10T02:02:04;4.90;99.90
13211;DHT22;6670;51.53087800;7.23266500;2023-02-10T02:04:33;4.80;99.90
13211;DHT22;6670;51.53087800;7.23266500;2023-02-10T02:07:02;4.80;99.90
13211;DHT22;6670;51.53087800;7.23266500;2023-02-10T02:09:29;4.80;99.90
13211;DHT22;6670;51.53087800;7.23266500;2023-02-10T02:12:05;4.80;99.90
13211;DHT22;6670;51.53087800;7.23266500;2023-02-10T02:14:41;4.80;99.90
13211;DHT22;6670;51.53087800;7.23266500;2023-02-10T02:17:17;4.90;99.90
13211;DHT22;6670;51.53087800;7.23266500;2023-02-10T02:20:22;4.90;99.90
13211;DHT22;6670;51.53087800;7.23266500;2023-02-10T02:23:28;4.80;99.90
13211;DHT22;6670;51.53087800;7.23266500;2023-02-10T02:26:30;4.80;99.90
13211;DHT22;6670;51.53087800;7.23266500;2023-02-10T02:29:24;4.80;99.90
13211;DHT22;6670;51.53087800;7.23266500;2023-02-10T02:31:59;4.80;99.90
13211;DHT22;6670;51.53087800;7.23266500;2023-02-10T02:34:34;4.80;99.90
13211;DHT22;6670;51.53087800;7.23266500;2023-02-10T02:37:09;4.80;99.90
13211;DHT22;6670;51.53087800;7.23266500;2023-02-10T02:39:41;4.70;99.90
13211;DHT22;6670;51.53087800;7.23266500;2023-02-10T02:42:15;4.80;99.90
13211;DHT22;6670;51.53087800;7.23266500;2023-02-10T02:44:46;4.80;99.90
13211;DHT22;6670;51.53087800;7.23266500;2023-02-10T02:47:21;4.70;99.90
13211;DHT22;6670;51.53087800;7.23266500;2023-02-10T02:49:59;4.70;99.90
13211;DHT22;6670;51.53087800;7.23266500;2023-02-10T02:52:39;4.70;99.90
13211;DHT22;6670;51.53087800;7.23266500;2023-02-10T02:55:16;4.60;99.90
13211;DHT22;6670;51.53087800;7.23266500;2023-02-10T02:57:51;4.70;99.90
13211;DHT22;6670;51.53087800;7.23266500;2023-02-10T03:00:23;4.70;99.90
13211;DHT22;6670;51.53087800;7.23266500;2023-02-10T03:02:54;4.70;99.90
13211;DHT22;6670;51.53087800;7.23266500;2023-02-10T03:05:23;4.60;99.90
13211;DHT22;6670;51.53087800;7.23266500;2023-02-10T03:07:55;4.60;99.90
13211;DHT22;6670;51.53087800;7.23266500;2023-02-10T03:10:22;4.60;99.90
13211;DHT22;6670;51.53087800;7.23266500;2023-02-10T03:12:50;4.50;99.90
13211;DHT22;6670;51.53087800;7.23266500;2023-02-10T03:15:17;4.50;99.90
13211;DHT22;6670;51.53087800;7.23266500;2023-02-10T03:17:44;4.50;99.90
13211;DHT22;6670;51.53087800;7.23266500;2023-02-10T03:20:14;4.40;99.90
13211;DHT22;6670;51.53087800;7.23266500;2023-02-10T03:22:42;4.40;99.90
13211;DHT22;6670;51.53087800;7.23266500;2023-02-10T03:25:09;4.40;99.90
13211;DHT22;6670;51.53087800;7.23266500;2023-02-10T03:27:37;4.30;99.90
13211;DHT22;6670;51.53087800;7.23266500;2023-02-10T03:30:04;4.30;99.90
13211;DHT22;6670;51.53087800;7.23266500;2023-02-10T03:32:32;4.30;99.90
13211;DHT22;6670;51.53087800;7.23266500;2023-02-10T03:34:59;4.30;99.90
13211;DHT22;6670;51.53087800;7.23266500;2023-02-10T03:37:28;4.20;99.90
13211;DHT22;6670;51.53087800;7.23266500;2023-02-10T03:39:55;4.20;99.90
13211;DHT22;6670;51.53087800;7.23266500;2023-02-10T03:46:16;4.20;99.90
13211;DHT22;6670;51.53087800;7.23266500;2023-02-10T03:48:43;4.20;99.90
13211;DHT22;6670;51.53087800;7.23266500;2023-02-10T03:51:10;4.20;99.90
13211;DHT22;6670;51.53087800;7.23266500;2023-02-10T03:53:40;4.10;99.90
13211;DHT22;6670;51.53087800;7.23266500;2023-02-10T03:56:07;4.10;99.90
13211;DHT22;6670;51.53087800;7.23266500;2023-02-10T03:58:35;4.10;99.90
13211;DHT22;6670;51.53087800;7.23266500;2023-02-10T04:01:09;4.10;99.90
13211;DHT22;6670;51.53087800;7.23266500;2023-02-10T04:03:36;4.10;99.90
13211;DHT22;6670;51.53087800;7.23266500;2023-02-10T04:06:04;4.00;99.90
13211;DHT22;6670;51.53087800;7.23266500;2023-02-10T04:08:32;4.10;99.90
13211;DHT22;6670;51.53087800;7.23266500;2023-02-10T04:11:01;4.00;99.90
13211;DHT22;6670;51.53087800;7.23266500;2023-02-10T04:13:30;3.90;99.90
13211;DHT22;6670;51.53087800;7.23266500;2023-02-10T04:16:03;3.90;99.90
13211;DHT22;6670;51.53087800;7.23266500;2023-02-10T04:18:31;3.90;99.90
13211;DHT22;6670;51.53087800;7.23266500;2023-02-10T04:20:59;3.90;99.90
13211;DHT22;6670;51.53087800;7.23266500;2023-02-10T04:23:28;3.80;99.90
13211;DHT22;6670;51.53087800;7.23266500;2023-02-10T04:25:56;3.80;99.90
13211;DHT22;6670;51.53087800;7.23266500;2023-02-10T04:28:25;3.80;99.90
13211;DHT22;6670;51.53087800;7.23266500;2023-02-10T04:30:53;3.70;99.90
13211;DHT22;6670;51.53087800;7.23266500;2023-02-10T04:33:21;3.70;99.90
13211;DHT22;6670;51.53087800;7.23266500;2023-02-10T04:39:40;3.60;99.90
13211;DHT22;6670;51.53087800;7.23266500;2023-02-10T04:42:07;3.60;99.90
13211;DHT22;6670;51.53087800;7.23266500;2023-02-10T04:44:36;3.70;99.90
13211;DHT22;6670;51.53087800;7.23266500;2023-02-10T04:47:04;3.80;99.90
13211;DHT22;6670;51.53087800;7.23266500;2023-02-10T04:49:32;3.60;99.90
13211;DHT22;6670;51.53087800;7.23266500;2023-02-10T04:52:00;3.50;99.90
13211;DHT22;6670;51.53087800;7.23266500;2023-02-10T04:54:27;3.50;99.90
13211;DHT22;6670;51.53087800;7.23266500;2023-02-10T04:56:55;3.50;99.90
13211;DHT22;6670;51.53087800;7.23266500;2023-02-10T04:59:22;3.40;99.90
13211;DHT22;6670;51.53087800;7.23266500;2023-02-10T05:01:51;3.50;99.90
13211;DHT22;6670;51.53087800;7.23266500;2023-02-10T05:04:18;3.40;99.90
13211;DHT22;6670;51.53087800;7.23266500;2023-02-10T05:06:46;3.50;99.90
13211;DHT22;6670;51.53087800;7.23266500;2023-02-10T05:09:13;3.60;99.90
13211;DHT22;6670;51.53087800;7.23266500;2023-02-10T05:11:40;3.60;99.90
13211;DHT22;6670;51.53087800;7.23266500;2023-02-10T05:14:08;3.50;99.90
13211;DHT22;6670;51.53087800;7.23266500;2023-02-10T05:16:35;3.50;99.90
13211;DHT22;6670;51.53087800;7.23266500;2023-02-10T05:19:04;3.50;99.90
13211;DHT22;6670;51.53087800;7.23266500;2023-02-10T05:21:32;3.50;99.90
13211;DHT22;6670;51.53087800;7.23266500;2023-02-10T05:23:59;3.60;99.90
13211;DHT22;6670;51.53087800;7.23266500;2023-02-10T05:26:27;3.60;99.90
13211;DHT22;6670;51.53087800;7.23266500;2023-02-10T05:28:54;3.50;99.90
13211;DHT22;6670;51.53087800;7.23266500;2023-02-10T05:31:22;3.60;99.90
13211;DHT22;6670;51.53087800;7.23266500;2023-02-10T05:33:49;3.50;99.90
13211;DHT22;6670;51.53087800;7.23266500;2023-02-10T05:36:19;3.60;99.90
13211;DHT22;6670;51.53087800;7.23266500;2023-02-10T05:38:46;3.50;99.90
13211;DHT22;6670;51.53087800;7.23266500;2023-02-10T05:41:28;3.50;99.90
13211;DHT22;6670;51.53087800;7.23266500;2023-02-10T05:43:55;3.50;99.90
13211;DHT22;6670;51.53087800;7.23266500;2023-02-10T05:46:22;3.50;99.90
13211;DHT22;6670;51.53087800;7.23266500;2023-02-10T05:48:50;3.60;99.90
13211;DHT22;6670;51.53087800;7.23266500;2023-02-10T05:51:18;3.60;99.90
13211;DHT22;6670;51.53087800;7.23266500;2023-02-10T05:53:46;3.60;99.90
13211;DHT22;6670;51.53087800;7.23266500;2023-02-10T05:56:13;3.50;99.90
13211;DHT22;6670;51.53087800;7.23266500;2023-02-10T05:58:41;3.60;99.90
13211;DHT22;6670;51.53087800;7.23266500;2023-02-10T06:01:09;3.60;99.90
13211;DHT22;6670;51.53087800;7.23266500;2023-02-10T06:03:36;3.60;99.90
13211;DHT22;6670;51.53087800;7.23266500;2023-02-10T06:09:53;3.70;99.90
13211;DHT22;6670;51.53087800;7.23266500;2023-02-10T06:12:21;3.70;99.90
13211;DHT22;6670;51.53087800;7.23266500;2023-02-10T06:14:48;3.70;99.90
13211;DHT22;6670;51.53087800;7.23266500;2023-02-10T06:17:15;3.60;99.90
13211;DHT22;6670;51.53087800;7.23266500;2023-02-10T06:19:43;3.60;99.90
13211;DHT22;6670;51.53087800;7.23266500;2023-02-10T06:22:10;3.60;99.90
13211;DHT22;6670;51.53087800;7.23266500;2023-02-10T06:24:38;3.70;99.90
13211;DHT22;6670;51.53087800;7.23266500;2023-02-10T06:27:08;3.60;99.90
13211;DHT22;6670;51.53087800;7.23266500;2023-02-10T06:29:36;3.70;99.90
13211;DHT22;6670;51.53087800;7.23266500;2023-02-10T06:32:03;3.60;99.90
13211;DHT22;6670;51.53087800;7.23266500;2023-02-10T06:34:31;3.60;99.90
13211;DHT22;6670;51.53087800;7.23266500;2023-02-10T06:36:58;3.70;99.90
13211;DHT22;6670;51.53087800;7.23266500;2023-02-10T06:39:26;3.90;99.90
13211;DHT22;6670;51.53087800;7.23266500;2023-02-10T06:41:53;3.90;99.90
13211;DHT22;6670;51.53087800;7.23266500;2023-02-10T06:44:22;3.70;99.90
13211;DHT22;6670;51.53087800;7.23266500;2023-02-10T06:46:49;3.80;99.90
13211;DHT22;6670;51.53087800;7.23266500;2023-02-10T06:49:16;3.70;99.90
13211;DHT22;6670;51.53087800;7.23266500;2023-02-10T06:51:44;3.70;99.90
13211;DHT22;6670;51.53087800;7.23266500;2023-02-10T06:54:11;3.70;99.90
13211;DHT22;6670;51.53087800;7.23266500;2023-02-10T06:56:39;3.70;99.90
13211;DHT22;6670;51.53087800;7.23266500;2023-02-10T06:59:07;3.70;99.90
13211;DHT22;6670;51.53087800;7.23266500;2023-02-10T07:02:04;3.70;99.90
13211;DHT22;6670;51.53087800;7.23266500;2023-02-10T07:04:31;3.70;99.90
13211;DHT22;6670;51.53087800;7.23266500;2023-02-10T07:06:59;3.80;99.90
13211;DHT22;6670;51.53087800;7.23266500;2023-02-10T07:09:27;3.90;99.90
13211;DHT22;6670;51.53087800;7.23266500;2023-02-10T07:11:54;3.90;99.90
13211;DHT22;6670;51.53087800;7.23266500;2023-02-10T07:14:22;4.00;99.90
13211;DHT22;6670;51.53087800;7.23266500;2023-02-10T07:16:49;4.00;99.90
13211;DHT22;6670;51.53087800;7.23266500;2023-02-10T07:19:18;4.00;99.90
13211;DHT22;6670;51.53087800;7.23266500;2023-02-10T07:21:45;4.00;99.90
13211;DHT22;6670;51.53087800;7.23266500;2023-02-10T07:24:12;3.90;99.90
13211;DHT22;6670;51.53087800;7.23266500;2023-02-10T07:26:59;4.00;99.90
13211;DHT22;6670;51.53087800;7.23266500;2023-02-10T07:29:26;3.90;99.90
13211;DHT22;6670;51.53087800;7.23266500;2023-02-10T07:32:11;4.00;99.90
13211;DHT22;6670;51.53087800;7.23266500;2023-02-10T07:34:40;4.10;99.90
13211;DHT22;6670;51.53087800;7.23266500;2023-02-10T07:37:20;4.00;99.90
13211;DHT22;6670;51.53087800;7.23266500;2023-02-10T07:39:47;4.00;99.90
13211;DHT22;6670;51.53087800;7.23266500;2023-02-10T07:42:15;4.10;99.90
13211;DHT22;6670;51.53087800;7.23266500;2023-02-10T07:45:09;4.00;99.90
13211;DHT22;6670;51.53087800;7.23266500;2023-02-10T07:47:38;3.80;99.90
13211;DHT22;6670;51.53087800;7.23266500;2023-02-10T07:50:07;3.80;99.90
13211;DHT22;6670;51.53087800;7.23266500;2023-02-10T07:52:35;3.90;99.90
13211;DHT22;6670;51.53087800;7.23266500;2023-02-10T07:55:03;4.30;99.90
13211;DHT22;6670;51.53087800;7.23266500;2023-02-10T07:57:30;4.00;99.90
13211;DHT22;6670;51.53087800;7.23266500;2023-02-10T07:59:58;3.90;99.90
13211;DHT22;6670;51.53087800;7.23266500;2023-02-10T08:02:25;3.80;99.90
13211;DHT22;6670;51.53087800;7.23266500;2023-02-10T08:04:53;3.90;99.90
13211;DHT22;6670;51.53087800;7.23266500;2023-02-10T08:07:54;3.90;99.90
13211;DHT22;6670;51.53087800;7.23266500;2023-02-10T08:10:21;3.90;99.90
13211;DHT22;6670;51.53087800;7.23266500;2023-02-10T08:12:49;4.00;99.90
13211;DHT22;6670;51.53087800;7.23266500;2023-02-10T08:15:16;4.00;99.90
13211;DHT22;6670;51.53087800;7.23266500;2023-02-10T08:18:15;4.00;99.90
13211;DHT22;6670;51.53087800;7.23266500;2023-02-10T08:20:52;4.00;99.90
13211;DHT22;6670;51.53087800;7.23266500;2023-02-10T08:23:21;4.00;99.90
13211;DHT22;6670;51.53087800;7.23266500;2023-02-10T08:25:49;4.10;99.90
13211;DHT22;6670;51.53087800;7.23266500;2023-02-10T08:28:17;4.10;99.90
13211;DHT22;6670;51.53087800;7.23266500;2023-02-10T08:30:48;4.20;99.90
13211;DHT22;6670;51.53087800;7.23266500;2023-02-10T08:33:16;4.20;99.90
13211;DHT22;6670;51.53087800;7.23266500;2023-02-10T08:35:43;4.30;99.90
13211;DHT22;6670;51.53087800;7.23266500;2023-02-10T08:38:11;4.20;99.90
13211;DHT22;6670;51.53087800;7.23266500;2023-02-10T08:40:40;4.20;99.90
13211;DHT22;6670;51.53087800;7.23266500;2023-02-10T08:43:08;4.30;99.90
13211;DHT22;6670;51.53087800;7.23266500;2023-02-10T08:45:37;4.40;99.90
13211;DHT22;6670;51.53087800;7.23266500;2023-02-10T08:48:06;4.50;99.90
13211;DHT22;6670;51.53087800;7.23266500;2023-02-10T08:50:34;4.60;99.90
13211;DHT22;6670;51.53087800;7.23266500;2023-02-10T08:53:02;4.70;99.90
13211;DHT22;6670;51.53087800;7.23266500;2023-02-10T08:55:29;4.70;99.90
13211;DHT22;6670;51.53087800;7.23266500;2023-02-10T08:57:58;4.80;99.90
13211;DHT22;6670;51.53087800;7.23266500;2023-02-10T09:00:28;4.70;99.90
13211;DHT22;6670;51.53087800;7.23266500;2023-02-10T09:02:55;4.80;99.90
13211;DHT22;6670;51.53087800;7.23266500;2023-02-10T09:05:34;4.80;99.90
13211;DHT22;6670;51.53087800;7.23266500;2023-02-10T09:08:27;4.80;99.90
13211;DHT22;6670;51.53087800;7.23266500;2023-02-10T09:10:54;4.60;99.90
13211;DHT22;6670;51.53087800;7.23266500;2023-02-10T09:13:35;4.60;99.90
13211;DHT22;6670;51.53087800;7.23266500;2023-02-10T09:16:03;4.60;99.90
13211;DHT22;6670;51.53087800;7.23266500;2023-02-10T09:18:31;4.60;99.90
13211;DHT22;6670;51.53087800;7.23266500;2023-02-10T09:21:08;4.70;99.90
13211;DHT22;6670;51.53087800;7.23266500;2023-02-10T09:23:36;4.70;99.90
13211;DHT22;6670;51.53087800;7.23266500;2023-02-10T09:26:03;4.60;99.90
13211;DHT22;6670;51.53087800;7.23266500;2023-02-10T09:28:31;4.70;99.90
13211;DHT22;6670;51.53087800;7.23266500;2023-02-10T09:31:00;4.50;99.90
13211;DHT22;6670;51.53087800;7.23266500;2023-02-10T09:33:27;4.50;99.90
13211;DHT22;6670;51.53087800;7.23266500;2023-02-10T09:36:05;4.70;99.90
13211;DHT22;6670;51.53087800;7.23266500;2023-02-10T09:38:33;4.70;99.90
13211;DHT22;6670;51.53087800;7.23266500;2023-02-10T09:41:07;4.70;99.90
13211;DHT22;6670;51.53087800;7.23266500;2023-02-10T09:43:54;4.70;99.90
13211;DHT22;6670;51.53087800;7.23266500;2023-02-10T09:46:35;4.70;99.90
13211;DHT22;6670;51.53087800;7.23266500;2023-02-10T09:49:17;4.80;99.90
13211;DHT22;6670;51.53087800;7.23266500;2023-02-10T09:51:58;4.80;99.90
13211;DHT22;6670;51.53087800;7.23266500;2023-02-10T09:54:34;4.70;99.90
13211;DHT22;6670;51.53087800;7.23266500;2023-02-10T09:57:03;4.60;99.90
13211;DHT22;6670;51.53087800;7.23266500;2023-02-10T09:59:33;4.70;99.90
13211;DHT22;6670;51.53087800;7.23266500;2023-02-10T10:02:13;4.60;99.90
13211;DHT22;6670;51.53087800;7.23266500;2023-02-10T10:04:44;4.70;99.90
13211;DHT22;6670;51.53087800;7.23266500;2023-02-10T10:07:18;4.80;99.90
13211;DHT22;6670;51.53087800;7.23266500;2023-02-10T10:09:56;4.80;99.90
13211;DHT22;6670;51.53087800;7.23266500;2023-02-10T10:12:25;5.00;99.90
13211;DHT22;6670;51.53087800;7.23266500;2023-02-10T10:14:54;5.20;99.90
13211;DHT22;6670;51.53087800;7.23266500;2023-02-10T10:17:53;5.30;99.90
13211;DHT22;6670;51.53087800;7.23266500;2023-02-10T10:20:48;5.30;99.90
13211;DHT22;6670;51.53087800;7.23266500;2023-02-10T10:26:19;5.20;99.90
13211;DHT22;6670;51.53087800;7.23266500;2023-02-10T10:29:01;5.30;99.90
13211;DHT22;6670;51.53087800;7.23266500;2023-02-10T10:31:34;5.40;99.90
13211;DHT22;6670;51.53087800;7.23266500;2023-02-10T10:34:11;5.60;99.90
13211;DHT22;6670;51.53087800;7.23266500;2023-02-10T10:36:42;5.70;99.90
13211;DHT22;6670;51.53087800;7.23266500;2023-02-10T10:39:14;5.90;99.90
13211;DHT22;6670;51.53087800;7.23266500;2023-02-10T10:41:44;5.90;99.90
13211;DHT22;6670;51.53087800;7.23266500;2023-02-10T10:44:16;5.90;99.90
13211;DHT22;6670;51.53087800;7.23266500;2023-02-10T10:46:55;5.90;99.90
13211;DHT22;6670;51.53087800;7.23266500;2023-02-10T10:49:27;6.10;99.90
13211;DHT22;6670;51.53087800;7.23266500;2023-02-10T10:51:54;6.00;99.90
13211;DHT22;6670;51.53087800;7.23266500;2023-02-10T10:54:23;6.00;99.90
13211;DHT22;6670;51.53087800;7.23266500;2023-02-10T10:56:54;6.10;99.90
13211;DHT22;6670;51.53087800;7.23266500;2023-02-10T10:59:29;6.30;99.90
13211;DHT22;6670;51.53087800;7.23266500;2023-02-10T11:01:58;6.30;99.90
13211;DHT22;6670;51.53087800;7.23266500;2023-02-10T11:04:32;6.20;99.90
13211;DHT22;6670;51.53087800;7.23266500;2023-02-10T11:07:09;5.90;99.90
13211;DHT22;6670;51.53087800;7.23266500;2023-02-10T11:09:40;5.90;99.90
13211;DHT22;6670;51.53087800;7.23266500;2023-02-10T11:12:16;6.00;99.90
13211;DHT22;6670;51.53087800;7.23266500;2023-02-10T11:14:48;6.10;99.90
13211;DHT22;6670;51.53087800;7.23266500;2023-02-10T11:17:24;6.30;99.90
13211;DHT22;6670;51.53087800;7.23266500;2023-02-10T11:19:55;6.30;99.90
13211;DHT22;6670;51.53087800;7.23266500;2023-02-10T11:22:28;6.50;99.90
13211;DHT22;6670;51.53087800;7.23266500;2023-02-10T11:24:58;6.40;99.90
13211;DHT22;6670;51.53087800;7.23266500;2023-02-10T11:27:26;6.30;99.90
13211;DHT22;6670;51.53087800;7.23266500;2023-02-10T11:29:55;6.20;99.90
13211;DHT22;6670;51.53087800;7.23266500;2023-02-10T11:32:25;6.40;99.90
13211;DHT22;6670;51.53087800;7.23266500;2023-02-10T11:35:14;6.50;99.90
13211;DHT22;6670;51.53087800;7.23266500;2023-02-10T11:37:51;6.50;99.90
13211;DHT22;6670;51.53087800;7.23266500;2023-02-10T11:40:21;6.70;99.90
13211;DHT22;6670;51.53087800;7.23266500;2023-02-10T11:42:51;6.70;99.90
13211;DHT22;6670;51.53087800;7.23266500;2023-02-10T11:45:21;6.50;99.90
13211;DHT22;6670;51.53087800;7.23266500;2023-02-10T11:47:59;6.60;99.90
13211;DHT22;6670;51.53087800;7.23266500;2023-02-10T11:50:31;6.80;99.90
13211;DHT22;6670;51.53087800;7.23266500;2023-02-10T11:52:59;6.90;99.90
13211;DHT22;6670;51.53087800;7.23266500;2023-02-10T11:55:35;7.00;99.90
13211;DHT22;6670;51.53087800;7.23266500;2023-02-10T11:58:23;7.10;99.90
13211;DHT22;6670;51.53087800;7.23266500;2023-02-10T12:01:15;7.20;99.90
13211;DHT22;6670;51.53087800;7.23266500;2023-02-10T12:04:00;7.00;99.90
13211;DHT22;6670;51.53087800;7.23266500;2023-02-10T12:06:35;7.10;99.90
13211;DHT22;6670;51.53087800;7.23266500;2023-02-10T12:09:09;7.00;99.90
13211;DHT22;6670;51.53087800;7.23266500;2023-02-10T12:12:01;7.00;99.90
13211;DHT22;6670;51.53087800;7.23266500;2023-02-10T12:14:42;7.00;99.90
13211;DHT22;6670;51.53087800;7.23266500;2023-02-10T12:17:24;6.80;99.90
13211;DHT22;6670;51.53087800;7.23266500;2023-02-10T12:20:13;6.90;99.90
13211;DHT22;6670;51.53087800;7.23266500;2023-02-10T12:23:07;7.00;99.90
13211;DHT22;6670;51.53087800;7.23266500;2023-02-10T12:25:44;6.90;99.90
13211;DHT22;6670;51.53087800;7.23266500;2023-02-10T12:28:19;7.10;99.90
13211;DHT22;6670;51.53087800;7.23266500;2023-02-10T12:30:56;7.10;99.90
13211;DHT22;6670;51.53087800;7.23266500;2023-02-10T12:33:39;6.90;99.90
13211;DHT22;6670;51.53087800;7.23266500;2023-02-10T12:36:15;7.00;99.90
13211;DHT22;6670;51.53087800;7.23266500;2023-02-10T12:38:55;7.30;99.90
13211;DHT22;6670;51.53087800;7.23266500;2023-02-10T12:41:37;7.60;99.90
13211;DHT22;6670;51.53087800;7.23266500;2023-02-10T12:44:27;7.40;99.90
13211;DHT22;6670;51.53087800;7.23266500;2023-02-10T12:47:09;7.20;99.90
13211;DHT22;6670;51.53087800;7.23266500;2023-02-10T12:49:51;7.20;99.90
13211;DHT22;6670;51.53087800;7.23266500;2023-02-10T12:52:23;7.10;99.90
13211;DHT22;6670;51.53087800;7.23266500;2023-02-10T12:54:59;7.40;99.90
13211;DHT22;6670;51.53087800;7.23266500;2023-02-10T12:57:30;7.70;99.90
13211;DHT22;6670;51.53087800;7.23266500;2023-02-10T13:00:02;7.80;99.90
13211;DHT22;6670;51.53087800;7.23266500;2023-02-10T13:02:38;8.10;99.90
13211;DHT22;6670;51.53087800;7.23266500;2023-02-10T13:05:10;8.70;99.90
13211;DHT22;6670;51.53087800;7.23266500;2023-02-10T13:07:42;8.80;99.90
13211;DHT22;6670;51.53087800;7.23266500;2023-02-10T13:10:22;8.80;99.90
13211;DHT22;6670;51.53087800;7.23266500;2023-02-10T13:12:56;8.70;99.90
13211;DHT22;6670;51.53087800;7.23266500;2023-02-10T13:15:29;8.90;99.90
13211;DHT22;6670;51.53087800;7.23266500;2023-02-10T13:18:17;9.10;99.90
13211;DHT22;6670;51.53087800;7.23266500;2023-02-10T13:20:53;8.70;99.90
13211;DHT22;6670;51.53087800;7.23266500;2023-02-10T13:23:28;8.50;99.90
13211;DHT22;6670;51.53087800;7.23266500;2023-02-10T13:26:17;8.40;99.90
13211;DHT22;6670;51.53087800;7.23266500;2023-02-10T13:28:54;8.30;99.90
13211;DHT22;6670;51.53087800;7.23266500;2023-02-10T13:31:37;8.10;99.90
13211;DHT22;6670;51.53087800;7.23266500;2023-02-10T13:34:18;8.10;99.90
13211;DHT22;6670;51.53087800;7.23266500;2023-02-10T13:36:50;8.20;99.90
13211;DHT22;6670;51.53087800;7.23266500;2023-02-10T13:39:20;8.80;99.90
13211;DHT22;6670;51.53087800;7.23266500;2023-02-10T13:41:51;9.10;99.90
13211;DHT22;6670;51.53087800;7.23266500;2023-02-10T13:44:32;9.30;99.20
13211;DHT22;6670;51.53087800;7.23266500;2023-02-10T13:47:24;9.20;98.90
13211;DHT22;6670;51.53087800;7.23266500;2023-02-10T13:49:56;9.30;99.20
13211;DHT22;6670;51.53087800;7.23266500;2023-02-10T13:52:25;9.70;97.10
13211;DHT22;6670;51.53087800;7.23266500;2023-02-10T13:54:59;9.80;95.90
13211;DHT22;6670;51.53087800;7.23266500;2023-02-10T13:57:31;10.60;94.50
13211;DHT22;6670;51.53087800;7.23266500;2023-02-10T14:00:12;11.90;90.60
13211;DHT22;6670;51.53087800;7.23266500;2023-02-10T14:02:40;11.90;90.30
13211;DHT22;6670;51.53087800;7.23266500;2023-02-10T14:05:24;11.50;89.60
13211;DHT22;6670;51.53087800;7.23266500;2023-02-10T14:07:52;10.90;91.00
13211;DHT22;6670;51.53087800;7.23266500;2023-02-10T14:10:30;11.20;90.00
13211;DHT22;6670;51.53087800;7.23266500;2023-02-10T14:13:02;10.70;90.80
13211;DHT22;6670;51.53087800;7.23266500;2023-02-10T14:15:31;10.80;90.50
13211;DHT22;6670;51.53087800;7.23266500;2023-02-10T14:18:02;10.90;88.60
13211;DHT22;6670;51.53087800;7.23266500;2023-02-10T14:20:34;10.40;90.30
13211;DHT22;6670;51.53087800;7.23266500;2023-02-10T14:23:04;10.10;91.40
13211;DHT22;6670;51.53087800;7.23266500;2023-02-10T14:25:38;9.70;92.80
13211;DHT22;6670;51.53087800;7.23266500;2023-02-10T14:28:20;10.10;92.50
13211;DHT22;6670;51.53087800;7.23266500;2023-02-10T14:30:52;9.60;93.80